Startpagina
METAR-TAF:

METAR-TAF

Vliegvelden :

Loei, Thailand

breedte: 17-27N, lengte: 101-44E, hoogte: 253 m

Actueel weer

Dit bericht is 8 uur en het 10 minuten geleden gemaakt, om 12:00 UTC
Wind 3 kt uit het zuidwesten
Temperatuur 24°C
Vochtigheid 100%
Druk 1008 hPa
Zicht 10 km of meer
Verspreide wolken op 2500 ft
Gebroken wolken op 7000 ft

METAR: VTUL 021200Z 22003KT 9999 SCT025 BKN070 24/24 Q1008 NOSIG

Tijdstip: 03:10 (20:10 UTC)

Verwachting

Dit bericht is 3 uur en het 10 minuten geleden gemaakt, om 17:00 UTC
Verwachting geldig van 02 om 18 UTC tot 03 om 18 UTC
Wind 5 kt uit het westen
Zicht 10 km of meer
Verspreide wolken op 3000 ft
Tijdelijke
van 03 om 06 UTC tot 03 om 12 UTC
Wind 15 kt uit variabele richting
Zicht: 4000 m
Weinig wolken op 1800 ft, Cumulonimbus.
Gebroken wolken op 2000 ft
onweer, regen

TAF: VTUL 021700Z 0218/0318 27005KT 9999 SCT030 TEMPO 0306/0312 VRB15KT 4000 TSRA FEW018CB BKN020

Waarnemingen en weersverwachtingen van meer dan 4000 vliegvelden (METAR en TAF).

De beschikbare stations zijn de gele en rode punten op de kaart.

Ga met uw muis naar het station om de naam te zien.

Klik dan om waarnemingen en weersverwachtingen te zien.

kaart wijzigen: klik op de groene knoppen met een zwart kruis om in te zoomen, op de groene knop met een streepje om uit te zoomen of op de groene pijlen voor aangrenzende kaarten.


METAR-TAF: